Terminal Aerodrome Forecast
Issued by NWS

Home | Current Version | Previous Version | Text Only | Print | Product List | Glossary On
Versions: 1 2 3 4 5 6 7 8 9 10 11 12 13 14 15 16
000
FTUS42 KMLB 311900 AAA
TAFFPR
TAF AMD
KFPR 311909Z 3119/0118 12008KT P6SM VCTS FEW025 SCT040CB BKN100
      TEMPO 3120/3122 3SM TSRA BKN025CB
     FM312300 15009KT P6SM SCT040 BKN120
     FM010100 16005KT P6SM SCT060 BKN250
     FM011400 20004KT P6SM FEW020 SCT250=

USA.gov is the U.S. government's official web portal to all federal, state and local government web resources and services.